Time;durP1;ratioP1;P1;durP2;ratioP2;P2;SDS_P1;SDS_P2;PMS_P1;PMS_P2;Temp;Humidity;BMP_temperature;BMP_pressure;BME280_temperature;BME280_humidity;BME280_pressure;Samples;Min_cycle;Max_cycle;Signal;HPM_P1;HPM_P2
2024/01/28 00:01:06;;;;;;;8.80;6.43;;;3.00;99.90;;;;;;5072475;28;20213;-69
2024/01/28 00:03:32;;;;;;;9.60;6.93;;;3.00;99.90;;;;;;5072885;28;20614;-69
2024/01/28 00:05:58;;;;;;;9.73;6.80;;;3.00;99.90;;;;;;5072094;28;20158;-69
2024/01/28 00:08:25;;;;;;;9.93;7.07;;;2.90;99.90;;;;;;5072751;28;20400;-69
2024/01/28 00:10:51;;;;;;;9.20;6.80;;;3.00;99.90;;;;;;5072454;28;20231;-69
2024/01/28 00:13:18;;;;;;;12.77;7.07;;;3.00;99.90;;;;;;5072337;28;21060;-68
2024/01/28 00:15:44;;;;;;;9.57;7.40;;;2.90;99.90;;;;;;5074657;28;20407;-68
2024/01/28 00:18:09;;;;;;;9.07;7.13;;;2.90;99.90;;;;;;5075800;28;20400;-69
2024/01/28 00:20:35;;;;;;;9.27;7.60;;;3.00;99.90;;;;;;5076166;28;20193;-69
2024/01/28 00:23:02;;;;;;;9.67;6.43;;;3.00;99.90;;;;;;5077022;28;20174;-70
2024/01/28 00:25:27;;;;;;;11.80;6.93;;;3.00;99.90;;;;;;5076376;28;20170;-69
2024/01/28 00:27:53;;;;;;;10.37;7.47;;;3.00;99.90;;;;;;5075932;28;20546;-69
2024/01/28 00:30:18;;;;;;;13.33;8.20;;;3.00;99.90;;;;;;5075791;28;20189;-69
2024/01/28 00:32:44;;;;;;;11.73;8.90;;;2.90;99.90;;;;;;5075885;28;20212;-67
2024/01/28 00:35:10;;;;;;;9.77;8.13;;;2.90;99.90;;;;;;5075770;28;20659;-69
2024/01/28 00:37:36;;;;;;;13.70;7.80;;;2.70;99.90;;;;;;5070911;28;20497;-69
2024/01/28 00:40:03;;;;;;;9.93;8.67;;;2.70;99.90;;;;;;5056641;28;20182;-68
2024/01/28 00:42:29;;;;;;;12.90;6.77;;;2.60;99.90;;;;;;5058160;28;20515;-69
2024/01/28 00:44:55;;;;;;;11.40;8.27;;;2.60;99.90;;;;;;5075461;28;20464;-70
2024/01/28 00:47:20;;;;;;;19.20;10.40;;;2.60;99.90;;;;;;5075353;28;20766;-69
2024/01/28 00:49:46;;;;;;;10.13;7.37;;;2.50;99.90;;;;;;5075008;28;20206;-70
2024/01/28 00:52:11;;;;;;;11.80;8.37;;;2.50;99.90;;;;;;5075357;28;20186;-69
2024/01/28 00:54:37;;;;;;;10.37;8.10;;;2.50;99.90;;;;;;5075651;28;20242;-69
2024/01/28 00:57:03;;;;;;;11.07;7.83;;;2.50;99.90;;;;;;5075042;28;20166;-70
2024/01/28 00:59:28;;;;;;;11.90;7.63;;;2.50;99.90;;;;;;5075461;28;20182;-69
2024/01/28 01:01:54;;;;;;;14.20;7.47;;;2.40;99.90;;;;;;5075329;28;20625;-69
2024/01/28 01:04:19;;;;;;;14.60;8.67;;;2.40;99.90;;;;;;5074853;28;20564;-69
2024/01/28 01:06:45;;;;;;;11.10;8.20;;;2.40;99.90;;;;;;5074848;28;20633;-69
2024/01/28 01:09:11;;;;;;;9.00;7.80;;;2.40;99.90;;;;;;5074963;28;20602;-69
2024/01/28 01:11:36;;;;;;;11.13;9.30;;;2.30;99.90;;;;;;5075280;28;20263;-70
2024/01/28 01:14:03;;;;;;;12.70;10.30;;;2.30;99.90;;;;;;5075179;28;20659;-68
2024/01/28 01:16:29;;;;;;;14.20;10.53;;;2.30;99.90;;;;;;5075676;28;20700;-70
2024/01/28 01:18:55;;;;;;;11.77;9.03;;;2.30;99.90;;;;;;5056912;28;20428;-68
2024/01/28 01:21:20;;;;;;;11.23;8.77;;;2.30;99.90;;;;;;5074750;28;20182;-70
2024/01/28 01:23:46;;;;;;;10.93;9.67;;;2.30;99.90;;;;;;5074796;28;20659;-69
2024/01/28 01:26:11;;;;;;;12.50;9.90;;;2.20;99.90;;;;;;5073734;28;20173;-69
2024/01/28 01:28:37;;;;;;;12.53;9.97;;;2.20;99.90;;;;;;5075067;28;20241;-69
2024/01/28 01:31:04;;;;;;;15.90;9.90;;;2.30;99.90;;;;;;5074729;28;20212;-70
2024/01/28 01:33:29;;;;;;;12.07;9.33;;;2.20;99.90;;;;;;5074630;28;20560;-70
2024/01/28 01:35:55;;;;;;;11.10;9.17;;;2.30;99.90;;;;;;5075158;28;20405;-70
2024/01/28 01:38:21;;;;;;;8.57;7.77;;;2.30;99.90;;;;;;5074509;28;20257;-69
2024/01/28 01:40:47;;;;;;;9.33;8.43;;;2.30;99.90;;;;;;5074447;28;20181;-70
2024/01/28 01:43:13;;;;;;;14.87;9.37;;;2.20;99.90;;;;;;5074274;28;20477;-70
2024/01/28 01:45:40;;;;;;;10.93;9.10;;;2.20;99.90;;;;;;5056732;28;20177;-70
2024/01/28 01:48:10;;;;;;;9.73;8.63;;;2.30;99.90;;;;;;5074219;28;20166;-69
2024/01/28 01:50:36;;;;;;;13.70;11.03;;;2.30;99.90;;;;;;5073428;28;20501;-69
2024/01/28 01:53:04;;;;;;;16.67;8.80;;;2.20;99.90;;;;;;5074262;28;20439;-69
2024/01/28 01:55:30;;;;;;;8.90;8.00;;;2.30;99.90;;;;;;5074375;28;20400;-70
2024/01/28 01:57:56;;;;;;;10.60;8.53;;;2.30;99.90;;;;;;5074046;28;20392;-68
2024/01/28 02:00:22;;;;;;;14.30;9.03;;;2.30;99.90;;;;;;5074020;28;20416;-69
2024/01/28 02:02:49;;;;;;;12.10;8.90;;;2.30;99.90;;;;;;5056271;28;20481;-68
2024/01/28 02:05:14;;;;;;;9.57;8.50;;;2.30;99.90;;;;;;5074390;28;20411;-68
2024/01/28 02:07:40;;;;;;;13.43;10.43;;;2.20;99.90;;;;;;5073950;28;20404;-69
2024/01/28 02:10:06;;;;;;;11.93;8.70;;;2.20;99.90;;;;;;5073612;28;20232;-70
2024/01/28 02:12:32;;;;;;;11.53;9.20;;;2.20;99.90;;;;;;5073543;28;20193;-68
2024/01/28 02:15:11;;;;;;;12.33;9.77;;;2.20;99.90;;;;;;5073940;28;20400;-69
2024/01/28 02:17:37;;;;;;;9.73;8.10;;;2.10;99.90;;;;;;5073817;28;20556;-69
2024/01/28 02:20:04;;;;;;;12.10;8.70;;;2.30;99.90;;;;;;5073759;28;20416;-70
2024/01/28 02:22:30;;;;;;;8.60;7.03;;;2.50;99.90;;;;;;5055906;28;20408;-70
2024/01/28 02:24:57;;;;;;;9.73;8.63;;;2.50;99.90;;;;;;5073738;28;20446;-70
2024/01/28 02:27:23;;;;;;;14.53;9.67;;;2.40;99.90;;;;;;5073536;28;20170;-69
2024/01/28 02:29:48;;;;;;;9.33;7.70;;;2.40;99.90;;;;;;5073520;28;20573;-69
2024/01/28 02:32:16;;;;;;;14.37;9.37;;;2.30;99.90;;;;;;5073369;28;20213;-68
2024/01/28 02:34:42;;;;;;;15.10;10.20;;;2.30;99.90;;;;;;5072911;28;20231;-68
2024/01/28 02:37:09;;;;;;;11.37;9.50;;;2.20;99.90;;;;;;5069697;28;20440;-69
2024/01/28 02:39:35;;;;;;;11.83;8.40;;;2.20;99.90;;;;;;5073121;28;20272;-69
2024/01/28 02:42:01;;;;;;;12.30;8.43;;;2.10;99.90;;;;;;5073857;28;20538;-69
2024/01/28 02:44:26;;;;;;;10.80;8.40;;;2.20;99.90;;;;;;5073042;28;20178;-69
2024/01/28 02:46:53;;;;;;;9.93;8.60;;;2.20;99.90;;;;;;5055006;28;20178;-70
2024/01/28 02:49:21;;;;;;;11.60;8.83;;;2.30;99.90;;;;;;5073022;28;20165;-70
2024/01/28 02:51:48;;;;;;;10.47;9.43;;;2.30;99.90;;;;;;5073102;28;20488;-69
2024/01/28 02:54:13;;;;;;;11.30;8.30;;;2.30;99.90;;;;;;5073292;28;20498;-69
2024/01/28 02:56:39;;;;;;;10.30;9.10;;;2.20;99.90;;;;;;5072870;28;20200;-69
2024/01/28 02:59:04;;;;;;;14.63;9.17;;;2.10;99.90;;;;;;5072698;28;20653;-69
2024/01/28 03:01:30;;;;;;;12.70;9.10;;;2.10;99.90;;;;;;5072884;28;20628;-69
2024/01/28 03:03:56;;;;;;;11.03;8.80;;;2.20;99.90;;;;;;5072910;28;20166;-69
2024/01/28 03:06:21;;;;;;;9.80;8.80;;;2.20;99.90;;;;;;5072625;28;20200;-69
2024/01/28 03:08:47;;;;;;;12.37;9.67;;;2.20;99.90;;;;;;5072672;28;20174;-69
2024/01/28 03:11:13;;;;;;;12.63;9.90;;;2.10;99.90;;;;;;5072549;28;20182;-69
2024/01/28 03:13:38;;;;;;;15.33;9.10;;;2.10;99.90;;;;;;5072682;28;20208;-69
2024/01/28 03:16:04;;;;;;;12.53;10.23;;;2.00;99.90;;;;;;5072637;28;20166;-69
2024/01/28 03:18:30;;;;;;;12.93;9.50;;;2.10;99.90;;;;;;5072578;28;20223;-69
2024/01/28 03:20:56;;;;;;;13.33;9.53;;;2.10;99.90;;;;;;5072460;28;20436;-70
2024/01/28 03:23:21;;;;;;;12.73;9.37;;;2.20;99.90;;;;;;5072457;28;20182;-69
2024/01/28 03:25:48;;;;;;;11.50;8.70;;;2.30;99.90;;;;;;5072507;28;20174;-69
2024/01/28 03:28:13;;;;;;;12.50;8.87;;;2.30;99.90;;;;;;5072658;28;20515;-69
2024/01/28 03:30:39;;;;;;;11.53;9.13;;;2.30;99.90;;;;;;5072432;28;20435;-70
2024/01/28 03:33:05;;;;;;;11.63;9.60;;;2.30;99.90;;;;;;5072700;28;20204;-69
2024/01/28 03:35:30;;;;;;;14.13;10.30;;;2.20;99.90;;;;;;5073055;28;20177;-69
2024/01/28 03:37:56;;;;;;;10.07;9.03;;;2.10;99.90;;;;;;5072368;28;20212;-69
2024/01/28 03:40:21;;;;;;;10.93;9.83;;;2.00;99.90;;;;;;5072454;28;20657;-70
2024/01/28 03:42:47;;;;;;;14.43;10.50;;;2.00;99.90;;;;;;5072351;28;20170;-69
2024/01/28 03:45:13;;;;;;;19.10;10.13;;;2.00;99.90;;;;;;5072410;28;20170;-69
2024/01/28 03:47:38;;;;;;;9.80;8.80;;;2.00;99.90;;;;;;5072353;28;20170;-69
2024/01/28 03:50:04;;;;;;;12.03;10.57;;;2.00;99.90;;;;;;5074319;28;20563;-68
2024/01/28 03:52:30;;;;;;;13.10;9.97;;;2.00;99.90;;;;;;5075685;28;20193;-69
2024/01/28 03:54:56;;;;;;;10.87;9.63;;;2.00;99.90;;;;;;5076312;28;20411;-70
2024/01/28 03:57:22;;;;;;;13.93;10.60;;;2.00;99.90;;;;;;5075985;28;20643;-68
2024/01/28 03:59:47;;;;;;;14.27;10.40;;;2.00;99.90;;;;;;5076112;28;20550;-69
2024/01/28 04:02:14;;;;;;;12.80;10.13;;;1.90;99.90;;;;;;5075969;28;20192;-69
2024/01/28 04:04:40;;;;;;;16.67;10.90;;;1.90;99.90;;;;;;5075888;28;20173;-69
2024/01/28 04:07:05;;;;;;;10.90;8.43;;;2.00;99.90;;;;;;5075714;28;20408;-69
2024/01/28 04:09:32;;;;;;;14.17;10.30;;;2.00;99.90;;;;;;5075734;28;20435;-69
2024/01/28 04:11:58;;;;;;;11.97;9.00;;;1.90;99.90;;;;;;5075662;28;20633;-69
2024/01/28 04:14:24;;;;;;;13.77;9.83;;;2.00;99.90;;;;;;5075771;28;20439;-69
2024/01/28 04:16:50;;;;;;;12.50;9.93;;;2.10;99.90;;;;;;5075573;28;20400;-68
2024/01/28 04:19:15;;;;;;;14.10;9.90;;;2.00;99.90;;;;;;5075784;28;20408;-69
2024/01/28 04:21:41;;;;;;;10.20;8.50;;;2.00;99.90;;;;;;5075594;28;20184;-69
2024/01/28 04:24:07;;;;;;;11.13;9.93;;;1.90;99.90;;;;;;5075470;28;20174;-69
2024/01/28 04:26:33;;;;;;;10.23;8.87;;;1.90;99.90;;;;;;5075611;28;20170;-69
2024/01/28 04:28:59;;;;;;;15.00;11.50;;;1.90;99.90;;;;;;5075650;28;20840;-69
2024/01/28 04:31:29;;;;;;;13.13;9.67;;;2.00;99.90;;;;;;5075209;28;20239;-69
2024/01/28 04:33:55;;;;;;;13.17;10.53;;;2.00;99.90;;;;;;5075039;28;20403;-69
2024/01/28 04:36:21;;;;;;;17.00;11.53;;;2.00;99.90;;;;;;5075486;28;20412;-69
2024/01/28 04:38:47;;;;;;;12.23;10.10;;;1.90;99.90;;;;;;5055228;28;20171;-69
2024/01/28 04:41:13;;;;;;;11.90;10.70;;;1.90;99.90;;;;;;5055406;28;20520;-69
2024/01/28 04:43:39;;;;;;;12.90;10.90;;;2.00;99.90;;;;;;5057786;28;20412;-69
2024/01/28 04:46:04;;;;;;;12.33;10.60;;;2.00;99.90;;;;;;5055268;28;20405;-69
2024/01/28 04:48:30;;;;;;;12.87;9.67;;;1.90;99.90;;;;;;5054670;28;20185;-70
2024/01/28 04:50:56;;;;;;;13.63;11.97;;;1.80;99.90;;;;;;5074760;28;20207;-69
2024/01/28 04:53:22;;;;;;;12.77;9.30;;;2.00;99.90;;;;;;5075192;28;20198;-69
2024/01/28 04:55:47;;;;;;;11.37;8.97;;;2.10;99.90;;;;;;5074859;28;20165;-69
2024/01/28 04:58:13;;;;;;;16.40;12.40;;;2.10;99.90;;;;;;5074884;28;20838;-69
2024/01/28 05:00:39;;;;;;;14.83;11.13;;;2.10;99.90;;;;;;5074418;28;20190;-69
2024/01/28 05:03:04;;;;;;;11.83;9.20;;;2.00;99.90;;;;;;5074950;28;20173;-69
2024/01/28 05:05:30;;;;;;;16.60;11.33;;;2.00;99.90;;;;;;5075248;28;20190;-69
2024/01/28 05:07:55;;;;;;;12.07;10.20;;;1.90;99.90;;;;;;5074634;28;20181;-69
2024/01/28 05:10:21;;;;;;;15.60;11.23;;;1.90;99.90;;;;;;5056641;28;20550;-69
2024/01/28 05:12:48;;;;;;;13.40;10.60;;;1.90;99.90;;;;;;5074759;28;20641;-70
2024/01/28 05:15:16;;;;;;;10.70;9.60;;;1.80;99.90;;;;;;5074739;28;20465;-69
2024/01/28 05:17:43;;;;;;;14.40;10.33;;;1.80;99.90;;;;;;5074335;28;20419;-69
2024/01/28 05:20:09;;;;;;;15.50;11.53;;;1.80;99.90;;;;;;5074357;28;20477;-69
2024/01/28 05:22:35;;;;;;;13.00;10.60;;;1.80;99.90;;;;;;5074337;28;20910;-69
2024/01/28 05:25:02;;;;;;;14.67;11.57;;;1.70;99.90;;;;;;5056202;28;20473;-69
2024/01/28 05:27:28;;;;;;;16.13;11.90;;;1.60;99.90;;;;;;5056240;28;20185;-69
2024/01/28 05:29:55;;;;;;;12.80;9.20;;;1.50;99.90;;;;;;5056062;28;20547;-69
2024/01/28 05:32:21;;;;;;;12.50;9.77;;;1.60;99.90;;;;;;5073990;28;20492;-69
2024/01/28 05:34:47;;;;;;;14.20;10.90;;;1.70;99.90;;;;;;5074060;28;20412;-70
2024/01/28 05:37:15;;;;;;;12.60;10.27;;;1.90;99.90;;;;;;5055928;28;20785;-69
2024/01/28 05:39:41;;;;;;;18.00;11.73;;;2.00;99.90;;;;;;5074051;28;20248;-69
2024/01/28 05:42:06;;;;;;;15.37;10.30;;;2.10;99.90;;;;;;5073901;28;20408;-69
2024/01/28 05:44:32;;;;;;;13.40;9.07;;;1.90;99.90;;;;;;5073625;28;20173;-70
2024/01/28 05:46:58;;;;;;;12.83;10.07;;;2.00;99.90;;;;;;5073948;28;20196;-69
2024/01/28 05:49:23;;;;;;;10.80;9.70;;;2.00;99.90;;;;;;5073475;28;20582;-69
2024/01/28 05:51:49;;;;;;;11.20;9.70;;;1.90;99.90;;;;;;5073518;28;20182;-69
2024/01/28 05:54:15;;;;;;;12.40;10.60;;;1.80;99.90;;;;;;5073621;28;20276;-69
2024/01/28 05:56:41;;;;;;;16.93;11.97;;;1.80;99.90;;;;;;5073828;28;20181;-69
2024/01/28 05:59:07;;;;;;;13.40;9.97;;;1.90;99.90;;;;;;5073402;28;20898;-69
2024/01/28 06:01:32;;;;;;;10.90;9.73;;;1.90;99.90;;;;;;5073522;28;20253;-69
2024/01/28 06:03:58;;;;;;;10.87;9.70;;;2.00;99.90;;;;;;5073489;28;20227;-69
2024/01/28 06:06:23;;;;;;;11.13;8.30;;;2.00;99.90;;;;;;5055457;28;20174;-69
2024/01/28 06:08:49;;;;;;;11.10;9.37;;;2.10;99.90;;;;;;5073264;28;20169;-69
2024/01/28 06:11:14;;;;;;;10.87;9.37;;;2.10;99.90;;;;;;5073676;28;20197;-70
2024/01/28 06:13:40;;;;;;;12.97;11.13;;;2.20;99.90;;;;;;5072396;28;20609;-69
2024/01/28 06:16:07;;;;;;;9.97;8.90;;;2.20;99.90;;;;;;5073016;28;20166;-69
2024/01/28 06:18:32;;;;;;;9.40;8.50;;;2.20;99.90;;;;;;5073032;28;20169;-69
2024/01/28 06:20:58;;;;;;;16.63;11.50;;;2.20;99.90;;;;;;5072968;28;20478;-70
2024/01/28 06:23:23;;;;;;;13.03;11.40;;;2.20;99.90;;;;;;5073256;28;20174;-69
2024/01/28 06:25:49;;;;;;;13.00;10.67;;;2.10;99.90;;;;;;5073253;28;20175;-69
2024/01/28 06:28:15;;;;;;;14.90;9.37;;;2.00;99.90;;;;;;5073103;28;20174;-69
2024/01/28 06:30:40;;;;;;;10.40;9.40;;;2.00;99.90;;;;;;5072986;28;20432;-69
2024/01/28 06:33:06;;;;;;;13.63;10.47;;;2.10;99.90;;;;;;5072975;28;20194;-69
2024/01/28 06:35:31;;;;;;;13.40;10.07;;;2.10;99.90;;;;;;5072875;28;20728;-70
2024/01/28 06:37:57;;;;;;;11.80;10.60;;;2.10;99.90;;;;;;5073093;28;20166;-69
2024/01/28 06:40:23;;;;;;;12.50;9.23;;;2.10;99.90;;;;;;5070739;28;20190;-69
2024/01/28 06:42:48;;;;;;;13.40;11.53;;;2.10;99.90;;;;;;5052872;28;20181;-69
2024/01/28 06:45:14;;;;;;;10.70;9.47;;;2.10;99.90;;;;;;5071515;28;20177;-69
2024/01/28 06:47:39;;;;;;;11.97;9.93;;;2.00;99.90;;;;;;5072878;28;20239;-69
2024/01/28 06:50:05;;;;;;;13.10;9.97;;;2.00;99.90;;;;;;5072793;28;20213;-70
2024/01/28 06:52:31;;;;;;;12.80;10.13;;;2.00;99.90;;;;;;5073023;28;20197;-70
2024/01/28 06:54:58;;;;;;;15.17;9.33;;;2.00;99.90;;;;;;5054728;28;20420;-69
2024/01/28 06:57:23;;;;;;;15.70;10.33;;;2.00;99.90;;;;;;5072800;28;20808;-70
2024/01/28 06:59:49;;;;;;;11.50;9.47;;;2.00;99.90;;;;;;5072696;28;20420;-70
2024/01/28 07:02:15;;;;;;;12.40;9.27;;;2.00;99.90;;;;;;5072769;28;20561;-69
2024/01/28 07:04:41;;;;;;;11.60;10.37;;;2.00;99.90;;;;;;5072809;28;20174;-69
2024/01/28 07:07:07;;;;;;;11.63;9.73;;;2.10;99.90;;;;;;5072668;28;20405;-69
2024/01/28 07:09:32;;;;;;;13.97;10.77;;;2.10;99.90;;;;;;5072630;28;20250;-69
2024/01/28 07:11:58;;;;;;;10.83;9.10;;;2.10;99.90;;;;;;5072492;28;20189;-69
2024/01/28 07:14:24;;;;;;;17.00;10.90;;;2.10;99.90;;;;;;5072676;28;20273;-69
2024/01/28 07:16:50;;;;;;;10.50;9.40;;;2.20;99.90;;;;;;5072800;28;20176;-69
2024/01/28 07:19:16;;;;;;;10.23;9.23;;;2.10;99.90;;;;;;5072944;28;20536;-69
2024/01/28 07:21:41;;;;;;;16.80;11.03;;;2.20;99.90;;;;;;5072534;28;20416;-69
2024/01/28 07:24:08;;;;;;;12.67;9.50;;;2.10;99.90;;;;;;5074248;28;20239;-70
2024/01/28 07:26:34;;;;;;;11.97;10.23;;;2.10;99.90;;;;;;5058681;28;20174;-69
2024/01/28 07:29:00;;;;;;;14.63;10.40;;;2.00;99.90;;;;;;5076611;28;20416;-69
2024/01/28 07:31:26;;;;;;;15.83;13.27;;;2.00;99.90;;;;;;5076724;28;20189;-70
2024/01/28 07:33:51;;;;;;;11.33;9.63;;;2.00;99.90;;;;;;5076473;28;20408;-69
2024/01/28 07:36:17;;;;;;;10.23;9.10;;;2.20;99.90;;;;;;5076605;28;20214;-69
2024/01/28 07:38:43;;;;;;;13.67;11.10;;;2.20;99.90;;;;;;5077093;28;20170;-70
2024/01/28 07:41:14;;;;;;;12.80;10.23;;;2.10;99.90;;;;;;5076399;28;20561;-70
2024/01/28 07:43:43;;;;;;;14.73;11.60;;;2.10;99.90;;;;;;5076478;28;20430;-70
2024/01/28 07:46:09;;;;;;;13.57;11.40;;;2.10;99.90;;;;;;5076702;28;20894;-69
2024/01/28 07:48:35;;;;;;;12.57;9.90;;;2.10;99.90;;;;;;5076496;28;20468;-69
2024/01/28 07:51:01;;;;;;;12.13;9.67;;;2.20;99.90;;;;;;5076118;28;20539;-69
2024/01/28 07:53:27;;;;;;;11.87;10.37;;;2.30;99.90;;;;;;5075901;28;20193;-70
2024/01/28 07:55:52;;;;;;;12.90;10.13;;;2.30;99.90;;;;;;5058206;28;20303;-69
2024/01/28 07:58:18;;;;;;;11.43;10.10;;;2.20;99.90;;;;;;5075955;28;20195;-69
2024/01/28 08:00:43;;;;;;;13.77;10.10;;;2.30;99.90;;;;;;5076022;28;20193;-70
2024/01/28 08:03:09;;;;;;;11.47;9.73;;;2.40;99.90;;;;;;5058133;28;20184;-69
2024/01/28 08:05:34;;;;;;;13.47;10.90;;;2.50;99.90;;;;;;5076031;28;20249;-69
2024/01/28 08:08:00;;;;;;;13.07;11.77;;;2.60;99.90;;;;;;5075839;28;20214;-69
2024/01/28 08:10:26;;;;;;;17.10;12.70;;;2.50;99.90;;;;;;5075763;28;20668;-70
2024/01/28 08:12:52;;;;;;;20.30;15.70;;;2.50;99.90;;;;;;5075693;28;20239;-70
2024/01/28 08:15:17;;;;;;;16.93;14.27;;;2.60;99.90;;;;;;5075800;28;20408;-69
2024/01/28 08:17:44;;;;;;;20.20;15.50;;;2.60;99.90;;;;;;5075997;28;20592;-69
2024/01/28 08:20:10;;;;;;;12.60;10.63;;;2.60;99.90;;;;;;5076154;28;20186;-70
2024/01/28 08:22:37;;;;;;;12.17;10.03;;;2.70;99.90;;;;;;5076103;28;20408;-69
2024/01/28 08:25:04;;;;;;;15.53;12.67;;;2.70;99.90;;;;;;5075852;28;20412;-69
2024/01/28 08:27:30;;;;;;;13.07;11.67;;;2.80;99.90;;;;;;5075513;28;20496;-69
2024/01/28 08:29:56;;;;;;;13.50;12.10;;;2.90;99.90;;;;;;5075663;28;20439;-70
2024/01/28 08:32:22;;;;;;;13.37;11.40;;;3.00;99.90;;;;;;5075524;28;20468;-70
2024/01/28 08:34:49;;;;;;;13.70;11.13;;;3.10;99.90;;;;;;5057488;28;20444;-70
2024/01/28 08:37:15;;;;;;;12.17;10.93;;;3.10;99.90;;;;;;5074974;28;20173;-69
2024/01/28 08:39:40;;;;;;;11.13;9.97;;;3.10;99.90;;;;;;5074920;28;20428;-70
2024/01/28 08:42:06;;;;;;;12.60;10.97;;;3.20;99.90;;;;;;5057400;28;20932;-69
2024/01/28 08:44:31;;;;;;;15.20;12.67;;;3.20;99.90;;;;;;5056185;28;20425;-70
2024/01/28 08:46:57;;;;;;;14.33;12.97;;;3.40;99.90;;;;;;5075302;28;20204;-70
2024/01/28 08:49:22;;;;;;;13.43;12.03;;;3.40;99.90;;;;;;5074333;28;20448;-71
2024/01/28 08:51:48;;;;;;;12.57;11.37;;;3.50;99.90;;;;;;5072461;28;20182;-69
2024/01/28 08:54:14;;;;;;;12.77;11.30;;;3.60;99.90;;;;;;5075484;28;20176;-69
2024/01/28 08:56:39;;;;;;;13.00;11.33;;;3.60;99.90;;;;;;5074971;28;20648;-68
2024/01/28 08:59:05;;;;;;;12.73;11.07;;;3.70;99.90;;;;;;5056873;28;20543;-70
2024/01/28 09:01:30;;;;;;;12.87;11.50;;;3.80;99.90;;;;;;5074922;28;20166;-70
2024/01/28 09:03:56;;;;;;;13.10;11.60;;;3.80;99.90;;;;;;5056823;28;20704;-70
2024/01/28 09:06:21;;;;;;;13.27;11.93;;;3.90;99.90;;;;;;5056737;28;20193;-70
2024/01/28 09:08:47;;;;;;;14.63;12.13;;;4.00;99.90;;;;;;5056863;28;20177;-69
2024/01/28 09:11:13;;;;;;;14.03;11.73;;;4.00;99.90;;;;;;5074632;28;20441;-69
2024/01/28 09:13:38;;;;;;;14.00;11.83;;;4.10;99.90;;;;;;5074725;28;20665;-70
2024/01/28 09:16:07;;;;;;;13.63;12.37;;;4.10;99.90;;;;;;5056468;28;20170;-69
2024/01/28 09:18:32;;;;;;;12.70;10.73;;;4.20;99.90;;;;;;5074455;28;20220;-69
2024/01/28 09:20:59;;;;;;;12.23;10.93;;;4.20;99.90;;;;;;5074447;28;20459;-69
2024/01/28 09:23:24;;;;;;;13.67;11.10;;;4.30;99.90;;;;;;5056432;28;20174;-70
2024/01/28 09:25:50;;;;;;;14.03;12.53;;;4.40;99.90;;;;;;5074434;28;20399;-69
2024/01/28 09:28:15;;;;;;;14.40;12.60;;;4.40;99.90;;;;;;5074296;28;20174;-70
2024/01/28 09:30:42;;;;;;;13.77;11.13;;;4.50;99.90;;;;;;5056369;28;20302;-71
2024/01/28 09:33:09;;;;;;;14.53;12.43;;;4.60;99.90;;;;;;5074391;28;20190;-67
2024/01/28 09:35:35;;;;;;;15.60;12.73;;;4.70;99.90;;;;;;5067662;28;20436;-70
2024/01/28 09:38:01;;;;;;;13.77;12.27;;;4.80;99.90;;;;;;5073517;28;20467;-70
2024/01/28 09:40:27;;;;;;;16.37;13.80;;;4.70;99.90;;;;;;5074157;28;20900;-70
2024/01/28 09:43:08;;;;;;;13.03;11.63;;;4.60;99.90;;;;;;5074447;28;20242;-70
2024/01/28 09:45:34;;;;;;;12.63;11.33;;;4.80;99.90;;;;;;5074031;28;20178;-71
2024/01/28 09:48:01;;;;;;;13.97;12.63;;;4.90;99.90;;;;;;5068672;28;20787;-71
2024/01/28 09:50:27;;;;;;;13.10;11.33;;;5.00;99.90;;;;;;5098073;22;20680;-71
2024/01/28 09:52:53;;;;;;;14.13;12.73;;;5.00;99.90;;;;;;5074018;28;20775;-71
2024/01/28 09:55:18;;;;;;;15.67;12.33;;;5.10;99.90;;;;;;5074274;28;20460;-71
2024/01/28 09:57:45;;;;;;;12.83;11.53;;;5.20;99.90;;;;;;5073481;28;20174;-71
2024/01/28 10:00:12;;;;;;;17.43;12.87;;;5.30;99.90;;;;;;5073844;28;20597;-70
2024/01/28 10:02:39;;;;;;;13.37;12.07;;;5.50;99.90;;;;;;5063654;28;20469;-71
2024/01/28 10:05:10;;;;;;;14.10;12.67;;;5.60;99.90;;;;;;5053509;28;20990;-71
2024/01/28 10:07:47;;;;;;;13.07;11.67;;;5.70;99.90;;;;;;5049784;28;20482;-70
2024/01/28 10:10:19;;;;;;;15.70;11.27;;;5.80;99.90;;;;;;5071052;28;20586;-70
2024/01/28 10:12:49;;;;;;;14.70;12.00;;;6.00;99.90;;;;;;5070777;28;20397;-70
2024/01/28 10:15:16;;;;;;;14.70;11.43;;;6.10;99.90;;;;;;5070565;28;20168;-69
2024/01/28 10:17:47;;;;;;;12.90;11.60;;;6.20;99.90;;;;;;5070407;28;20409;-71
2024/01/28 10:20:24;;;;;;;12.90;11.40;;;6.30;99.90;;;;;;5071113;28;20456;-71
2024/01/28 10:22:51;;;;;;;13.67;12.23;;;6.50;99.90;;;;;;5070825;28;20367;-73
2024/01/28 10:25:17;;;;;;;13.63;12.00;;;6.50;99.90;;;;;;5070345;28;20398;-71
2024/01/28 10:27:46;;;;;;;16.50;13.23;;;6.40;99.90;;;;;;5070099;28;20403;-71
2024/01/28 10:30:16;;;;;;;15.03;12.00;;;6.60;99.90;;;;;;5070015;28;20459;-71
2024/01/28 10:32:43;;;;;;;13.00;11.80;;;6.70;99.90;;;;;;5070740;28;20404;-71
2024/01/28 10:35:13;;;;;;;15.67;12.57;;;6.80;99.90;;;;;;5070586;28;20407;-71
2024/01/28 10:37:40;;;;;;;11.33;9.80;;;6.80;99.90;;;;;;5070373;28;20424;-71
2024/01/28 10:40:08;;;;;;;11.67;10.53;;;7.00;99.90;;;;;;5072170;28;20431;-71
2024/01/28 10:42:41;;;;;;;14.93;11.33;;;7.10;99.90;;;;;;5074078;28;20414;-71
2024/01/28 10:45:11;;;;;;;11.03;9.93;;;7.20;99.90;;;;;;5070244;28;20437;-71
2024/01/28 10:47:40;;;;;;;13.70;10.10;;;7.20;99.90;;;;;;5076514;28;20915;-71
2024/01/28 10:50:10;;;;;;;9.37;8.47;;;7.40;99.90;;;;;;5078029;28;20921;-70
2024/01/28 10:52:39;;;;;;;10.70;9.60;;;7.50;99.90;;;;;;5072714;28;20421;-72
2024/01/28 10:55:05;;;;;;;11.87;10.67;;;7.70;99.90;;;;;;5071842;28;20399;-71
2024/01/28 10:57:32;;;;;;;9.73;8.83;;;7.80;99.90;;;;;;5070350;28;20401;-69
2024/01/28 11:00:05;;;;;;;9.17;8.03;;;7.90;99.90;;;;;;5068140;28;20915;-71
2024/01/28 11:02:31;;;;;;;10.23;9.23;;;7.90;99.90;;;;;;5069625;28;20384;-71
2024/01/28 11:04:57;;;;;;;11.40;9.50;;;7.90;99.90;;;;;;5069181;28;20849;-71
2024/01/28 11:07:24;;;;;;;10.43;9.43;;;8.10;99.90;;;;;;5069055;28;20433;-71
2024/01/28 11:09:53;;;;;;;13.70;9.97;;;8.10;99.90;;;;;;5069042;28;20217;-71
2024/01/28 11:12:20;;;;;;;9.77;8.87;;;8.10;99.90;;;;;;5069198;28;20396;-71
2024/01/28 11:14:46;;;;;;;9.90;8.90;;;9.40;99.90;;;;;;5069234;28;20409;-70
2024/01/28 11:17:12;;;;;;;11.47;8.97;;;11.60;99.90;;;;;;5069155;28;20415;-71
2024/01/28 11:19:37;;;;;;;9.47;8.57;;;13.80;99.90;;;;;;5067467;28;20420;-70
2024/01/28 11:22:03;;;;;;;11.23;9.20;;;15.10;95.40;;;;;;5055594;28;20977;-71
2024/01/28 11:24:29;;;;;;;8.80;8.00;;;16.10;93.30;;;;;;5054539;28;20174;-71
2024/01/28 11:26:58;;;;;;;11.30;8.97;;;17.50;91.20;;;;;;5055576;28;20414;-70
2024/01/28 11:29:32;;;;;;;13.13;9.90;;;18.80;85.30;;;;;;5054437;28;20197;-71
2024/01/28 11:32:04;;;;;;;8.97;8.13;;;19.40;80.00;;;;;;5055894;28;20425;-71
2024/01/28 11:34:30;;;;;;;10.00;9.00;;;20.00;76.30;;;;;;5055356;28;20437;-71
2024/01/28 11:36:58;;;;;;;9.30;8.30;;;20.00;72.90;;;;;;5055283;28;20838;-71
2024/01/28 11:39:48;;;;;;;8.40;7.60;;;20.50;72.00;;;;;;5055311;28;20178;-71
2024/01/28 11:42:13;;;;;;;10.90;8.43;;;21.90;68.20;;;;;;5054618;28;20466;-71
2024/01/28 11:44:41;;;;;;;9.50;8.53;;;22.60;64.20;;;;;;5055524;28;20409;-70
2024/01/28 11:47:10;;;;;;;8.27;7.47;;;22.10;62.90;;;;;;5055237;28;20167;-69
2024/01/28 11:49:35;;;;;;;9.40;8.70;;;21.30;62.10;;;;;;5055624;28;20809;-69
2024/01/28 11:52:02;;;;;;;8.73;7.93;;;22.00;61.50;;;;;;5054935;28;20425;-70
2024/01/28 11:54:27;;;;;;;7.93;7.23;;;23.10;61.00;;;;;;5055301;28;20257;-70
2024/01/28 11:56:53;;;;;;;9.97;9.07;;;23.10;57.70;;;;;;5055170;28;20489;-70
2024/01/28 11:59:18;;;;;;;12.30;11.10;;;23.90;57.00;;;;;;5054935;28;20182;-70
2024/01/28 12:01:44;;;;;;;11.50;10.30;;;24.00;56.30;;;;;;5054839;28;20233;-69
2024/01/28 12:04:10;;;;;;;10.00;9.10;;;23.70;54.00;;;;;;5054825;28;20261;-70
2024/01/28 12:06:36;;;;;;;7.90;7.10;;;24.00;54.60;;;;;;5054385;28;20171;-70
2024/01/28 12:09:01;;;;;;;9.03;8.13;;;23.50;54.10;;;;;;5054528;28;20198;-70
2024/01/28 12:11:28;;;;;;;10.97;7.87;;;24.00;53.60;;;;;;5054748;28;20269;-70
2024/01/28 12:13:55;;;;;;;8.03;7.43;;;24.40;52.60;;;;;;5054861;28;20223;-70
2024/01/28 12:16:22;;;;;;;8.97;8.03;;;24.40;52.00;;;;;;5054924;28;20534;-70
2024/01/28 12:18:49;;;;;;;12.43;8.10;;;24.70;52.20;;;;;;5054631;28;20990;-70
2024/01/28 12:21:19;;;;;;;7.50;6.80;;;25.30;50.70;;;;;;5054710;28;20421;-69
2024/01/28 12:23:46;;;;;;;7.83;7.10;;;24.80;50.90;;;;;;5054431;28;20790;-70
2024/01/28 12:26:13;;;;;;;8.63;7.93;;;24.60;49.70;;;;;;5054566;28;20481;-70
2024/01/28 12:28:40;;;;;;;8.57;7.70;;;24.30;51.70;;;;;;5054309;28;20487;-70
2024/01/28 12:31:08;;;;;;;7.93;7.13;;;24.80;51.60;;;;;;5054403;28;20990;-70
2024/01/28 12:33:33;;;;;;;7.07;6.40;;;25.40;49.70;;;;;;5053671;28;20762;-69
2024/01/28 12:35:59;;;;;;;8.03;6.17;;;26.10;48.80;;;;;;5054551;28;20432;-70
2024/01/28 12:38:25;;;;;;;7.20;6.60;;;26.60;48.80;;;;;;5054120;28;20224;-69